Time;durP1;ratioP1;P1;durP2;ratioP2;P2;SDS_P1;SDS_P2;PMS_P1;PMS_P2;Temp;Humidity;BMP_temperature;BMP_pressure;BME280_temperature;BME280_humidity;BME280_pressure;Samples;Min_cycle;Max_cycle;Signal;HPM_P1;HPM_P2
2020/12/05 00:00:01;;;;;;;26.67;16.13;;;;;;;;;;6278396;22;20869;-75
2020/12/05 00:02:37;;;;;;;24.50;16.33;;;;;;;;;;6278424;22;20428;-75
2020/12/05 00:05:17;;;;;;;24.73;16.40;;;;;;;;;;6278160;22;20432;-73
2020/12/05 00:07:44;;;;;;;24.43;16.60;;;;;;;;;;6279589;22;20479;-75
2020/12/05 00:10:14;;;;;;;24.17;16.37;;;;;;;;;;6278667;22;20405;-75
2020/12/05 00:12:41;;;;;;;28.13;17.47;;;;;;;;;;6277967;22;20412;-75
2020/12/05 00:15:12;;;;;;;25.87;17.63;;;;;;;;;;6278160;22;20408;-75
2020/12/05 00:17:39;;;;;;;23.20;15.37;;;;;;;;;;6277221;22;20416;-75
2020/12/05 00:20:06;;;;;;;25.67;16.57;;;;;;;;;;6278368;22;20424;-74
2020/12/05 00:22:33;;;;;;;24.40;16.23;;;;;;;;;;6277448;22;20412;-74
2020/12/05 00:25:00;;;;;;;28.70;17.80;;;;;;;;;;6277894;22;20736;-75
2020/12/05 00:27:27;;;;;;;25.00;18.33;;;;;;;;;;6278750;22;20554;-75
2020/12/05 00:29:54;;;;;;;26.83;18.30;;;;;;;;;;6278435;22;20408;-75
2020/12/05 00:32:23;;;;;;;27.40;17.63;;;;;;;;;;6278190;22;20421;-75
2020/12/05 00:34:50;;;;;;;24.77;17.47;;;;;;;;;;6277963;22;20982;-75
2020/12/05 00:37:17;;;;;;;26.40;17.40;;;;;;;;;;6279080;22;20416;-75
2020/12/05 00:39:44;;;;;;;26.20;17.50;;;;;;;;;;6278614;22;20404;-75
2020/12/05 00:42:11;;;;;;;25.47;16.83;;;;;;;;;;6279493;22;20823;-75
2020/12/05 00:44:38;;;;;;;25.50;16.27;;;;;;;;;;6278402;22;20405;-75
2020/12/05 00:47:13;;;;;;;23.70;15.40;;;;;;;;;;6277975;22;20444;-74
2020/12/05 00:49:41;;;;;;;27.30;16.27;;;;;;;;;;6278602;22;20405;-75
2020/12/05 00:52:09;;;;;;;26.40;16.40;;;;;;;;;;6278301;22;20448;-75
2020/12/05 00:54:36;;;;;;;26.90;16.03;;;;;;;;;;6278020;22;20408;-74
2020/12/05 00:57:08;;;;;;;23.50;16.60;;;;;;;;;;6277819;22;20473;-72
2020/12/05 00:59:43;;;;;;;22.30;15.23;;;;;;;;;;6278636;22;20474;-75
2020/12/05 01:02:10;;;;;;;28.90;16.27;;;;;;;;;;6278294;22;20474;-73
2020/12/05 01:04:49;;;;;;;27.70;17.33;;;;;;;;;;6278291;22;20500;-73
2020/12/05 01:07:21;;;;;;;27.00;15.17;;;;;;;;;;6278643;22;20597;-74
2020/12/05 01:09:52;;;;;;;30.10;18.10;;;;;;;;;;6278176;22;20408;-75
2020/12/05 01:12:19;;;;;;;21.60;15.27;;;;;;;;;;6278246;22;20840;-74
2020/12/05 01:14:46;;;;;;;26.17;17.87;;;;;;;;;;6278197;22;20419;-73
2020/12/05 01:17:16;;;;;;;24.50;17.43;;;;;;;;;;6278336;22;20405;-73
2020/12/05 01:19:43;;;;;;;26.50;17.77;;;;;;;;;;6278357;22;20405;-74
2020/12/05 01:22:13;;;;;;;25.30;16.07;;;;;;;;;;6278327;22;20409;-74
2020/12/05 01:24:41;;;;;;;27.77;18.07;;;;;;;;;;6277587;22;20821;-74
2020/12/05 01:27:08;;;;;;;28.43;17.20;;;;;;;;;;6277589;22;20506;-74
2020/12/05 01:29:35;;;;;;;25.53;17.43;;;;;;;;;;6279370;22;20411;-74
2020/12/05 01:32:02;;;;;;;24.80;17.13;;;;;;;;;;6278266;22;20887;-73
2020/12/05 01:34:29;;;;;;;26.07;18.17;;;;;;;;;;6278067;22;20760;-74
2020/12/05 01:36:56;;;;;;;27.40;16.73;;;;;;;;;;6278694;22;20420;-74
2020/12/05 01:39:23;;;;;;;25.77;16.70;;;;;;;;;;6277876;22;20455;-74
2020/12/05 01:41:52;;;;;;;27.57;19.77;;;;;;;;;;6278374;22;20413;-74
2020/12/05 01:44:19;;;;;;;24.97;17.60;;;;;;;;;;6277827;22;20737;-73
2020/12/05 01:46:47;;;;;;;29.17;19.17;;;;;;;;;;6277464;22;20811;-74
2020/12/05 01:49:16;;;;;;;27.50;18.23;;;;;;;;;;6277731;22;20409;-74
2020/12/05 01:51:43;;;;;;;29.33;17.73;;;;;;;;;;6276656;22;20417;-74
2020/12/05 01:54:10;;;;;;;28.50;17.77;;;;;;;;;;6278129;22;20835;-74
2020/12/05 01:56:38;;;;;;;35.37;19.00;;;;;;;;;;6276922;22;20408;-74
2020/12/05 01:59:06;;;;;;;29.20;17.60;;;;;;;;;;6277890;22;20404;-74
2020/12/05 02:01:33;;;;;;;27.67;17.10;;;;;;;;;;6277397;22;20416;-73
2020/12/05 02:04:01;;;;;;;26.00;17.80;;;;;;;;;;6277459;22;20823;-74
2020/12/05 02:06:47;;;;;;;28.73;18.00;;;;;;;;;;6277273;22;20416;-74
2020/12/05 02:09:15;;;;;;;27.43;18.53;;;;;;;;;;6278460;22;20941;-73
2020/12/05 02:11:46;;;;;;;29.47;17.60;;;;;;;;;;6279142;22;20994;-74
2020/12/05 02:14:16;;;;;;;30.70;18.37;;;;;;;;;;6278550;22;20826;-74
2020/12/05 02:16:43;;;;;;;27.27;16.80;;;;;;;;;;6278560;22;20412;-74
2020/12/05 02:19:15;;;;;;;27.43;16.67;;;;;;;;;;6278388;22;20388;-74
2020/12/05 02:21:43;;;;;;;26.60;16.40;;;;;;;;;;6254565;22;20416;-75
2020/12/05 02:24:11;;;;;;;26.20;17.90;;;;;;;;;;6278539;22;20724;-73
2020/12/05 02:26:39;;;;;;;29.90;18.47;;;;;;;;;;6279535;22;20417;-74
2020/12/05 02:29:07;;;;;;;32.33;19.13;;;;;;;;;;6278572;22;20832;-74
2020/12/05 02:31:34;;;;;;;27.27;18.17;;;;;;;;;;6278766;22;20459;-74
2020/12/05 02:34:03;;;;;;;27.57;18.20;;;;;;;;;;6279252;22;20416;-74
2020/12/05 02:36:31;;;;;;;28.57;19.47;;;;;;;;;;6278305;22;20481;-74
2020/12/05 02:39:01;;;;;;;25.70;18.07;;;;;;;;;;6278632;22;20412;-74
2020/12/05 02:41:29;;;;;;;28.47;18.80;;;;;;;;;;6279289;22;20419;-74
2020/12/05 02:43:56;;;;;;;28.23;18.57;;;;;;;;;;6278797;22;20411;-74
2020/12/05 02:46:24;;;;;;;31.37;19.40;;;;;;;;;;6254084;22;20475;-74
2020/12/05 02:48:51;;;;;;;28.87;19.10;;;;;;;;;;6278288;22;20444;-73
2020/12/05 02:51:18;;;;;;;27.73;18.30;;;;;;;;;;6278592;22;20684;-74
2020/12/05 02:53:45;;;;;;;30.07;20.50;;;;;;;;;;6279260;22;20405;-74
2020/12/05 02:56:19;;;;;;;29.73;19.37;;;;;;;;;;6278723;22;20409;-74
2020/12/05 02:58:47;;;;;;;30.63;18.37;;;;;;;;;;6279378;22;20424;-74
2020/12/05 03:01:14;;;;;;;30.63;19.33;;;;;;;;;;6278280;22;20503;-73
2020/12/05 03:03:41;;;;;;;32.00;22.83;;;;;;;;;;6278608;22;20407;-74
2020/12/05 03:06:08;;;;;;;28.37;20.53;;;;;;;;;;6279542;22;20421;-74
2020/12/05 03:08:35;;;;;;;33.53;20.20;;;;;;;;;;6279262;22;20440;-74
2020/12/05 03:11:02;;;;;;;34.17;21.13;;;;;;;;;;6278662;22;20466;-74
2020/12/05 03:13:29;;;;;;;29.23;19.30;;;;;;;;;;6279178;22;20819;-74
2020/12/05 03:16:00;;;;;;;34.77;22.17;;;;;;;;;;6278743;22;20413;-74
2020/12/05 03:18:27;;;;;;;34.97;21.50;;;;;;;;;;6278251;22;20417;-74
2020/12/05 03:20:54;;;;;;;35.40;20.73;;;;;;;;;;6278462;22;21037;-74
2020/12/05 03:23:26;;;;;;;32.37;22.30;;;;;;;;;;6278208;22;20459;-74
2020/12/05 03:25:56;;;;;;;35.23;21.50;;;;;;;;;;6278448;22;20428;-74
2020/12/05 03:28:26;;;;;;;37.90;22.43;;;;;;;;;;6278649;22;20447;-74
2020/12/05 03:30:53;;;;;;;31.20;20.60;;;;;;;;;;6278428;22;20413;-74
2020/12/05 03:33:22;;;;;;;36.07;21.70;;;;;;;;;;6279156;22;20409;-78
2020/12/05 03:35:49;;;;;;;30.57;20.67;;;;;;;;;;6278164;22;20422;-74
2020/12/05 03:38:16;;;;;;;32.90;20.10;;;;;;;;;;6278966;22;20401;-74
2020/12/05 03:40:43;;;;;;;29.73;20.17;;;;;;;;;;6278499;22;20416;-75
2020/12/05 03:43:10;;;;;;;33.43;21.27;;;;;;;;;;6278326;22;20423;-75
2020/12/05 03:45:40;;;;;;;29.47;18.63;;;;;;;;;;6278861;22;20435;-73
2020/12/05 03:48:07;;;;;;;32.70;21.37;;;;;;;;;;6278185;22;20459;-74
2020/12/05 03:50:35;;;;;;;33.40;20.60;;;;;;;;;;6278863;22;20409;-73
2020/12/05 03:53:02;;;;;;;32.00;20.30;;;;;;;;;;6278732;22;20409;-74
2020/12/05 03:55:29;;;;;;;33.00;22.00;;;;;;;;;;6278697;22;20428;-74
2020/12/05 03:57:56;;;;;;;34.40;21.57;;;;;;;;;;6278283;22;20409;-74
2020/12/05 04:00:23;;;;;;;32.30;20.70;;;;;;;;;;6278800;22;20443;-74
2020/12/05 04:02:50;;;;;;;30.30;20.03;;;;;;;;;;6278552;22;20392;-74
2020/12/05 04:05:17;;;;;;;31.40;20.63;;;;;;;;;;6278406;22;20424;-74
2020/12/05 04:07:46;;;;;;;32.17;20.70;;;;;;;;;;6278609;22;20444;-74
2020/12/05 04:10:13;;;;;;;33.93;21.30;;;;;;;;;;6278614;22;20416;-74
2020/12/05 04:12:43;;;;;;;31.47;19.27;;;;;;;;;;6279544;22;20458;-74
2020/12/05 04:15:10;;;;;;;33.10;20.13;;;;;;;;;;6278666;22;20413;-74
2020/12/05 04:17:37;;;;;;;31.90;20.73;;;;;;;;;;6278104;22;20416;-74
2020/12/05 04:20:04;;;;;;;33.27;21.70;;;;;;;;;;6278608;22;20422;-74
2020/12/05 04:22:31;;;;;;;37.53;21.50;;;;;;;;;;6278560;22;20423;-74
2020/12/05 04:24:59;;;;;;;34.53;20.57;;;;;;;;;;6278472;22;20405;-74
2020/12/05 04:27:26;;;;;;;34.33;21.90;;;;;;;;;;6278768;22;20442;-75
2020/12/05 04:29:53;;;;;;;31.17;21.27;;;;;;;;;;6279224;22;20413;-73
2020/12/05 04:32:20;;;;;;;33.63;22.00;;;;;;;;;;6277786;22;20413;-74
2020/12/05 04:34:47;;;;;;;35.70;21.40;;;;;;;;;;6278093;22;20401;-74
2020/12/05 04:37:15;;;;;;;31.57;21.30;;;;;;;;;;6278677;22;20699;-74
2020/12/05 04:39:44;;;;;;;32.70;21.00;;;;;;;;;;6277958;22;20458;-74
2020/12/05 04:42:12;;;;;;;37.50;23.00;;;;;;;;;;6278483;22;20413;-73
2020/12/05 04:44:39;;;;;;;28.20;19.87;;;;;;;;;;6278431;22;20413;-74
2020/12/05 04:47:07;;;;;;;37.10;22.13;;;;;;;;;;6277778;22;20474;-74
2020/12/05 04:49:36;;;;;;;36.73;22.80;;;;;;;;;;6278302;22;20405;-74
2020/12/05 04:52:09;;;;;;;35.33;22.30;;;;;;;;;;6278463;22;20478;-74
2020/12/05 04:54:40;;;;;;;39.67;23.63;;;;;;;;;;6277682;22;20410;-74
2020/12/05 04:57:08;;;;;;;32.00;20.60;;;;;;;;;;6278310;22;20424;-74
2020/12/05 04:59:36;;;;;;;36.33;21.50;;;;;;;;;;6277705;22;20492;-74
2020/12/05 05:02:10;;;;;;;34.50;22.30;;;;;;;;;;6278175;22;20416;-74
2020/12/05 05:04:42;;;;;;;29.17;18.97;;;;;;;;;;6277926;22;20835;-73
2020/12/05 05:07:09;;;;;;;32.83;20.13;;;;;;;;;;6278170;22;20417;-73
2020/12/05 05:09:45;;;;;;;33.43;20.80;;;;;;;;;;6278795;22;20401;-74
2020/12/05 05:12:12;;;;;;;30.03;21.23;;;;;;;;;;6278188;22;20698;-75
2020/12/05 05:14:41;;;;;;;33.97;21.13;;;;;;;;;;6276721;22;20397;-74
2020/12/05 05:17:08;;;;;;;30.70;19.40;;;;;;;;;;6277777;22;20416;-75
2020/12/05 05:19:35;;;;;;;29.30;20.03;;;;;;;;;;6278391;22;20404;-74
2020/12/05 05:22:03;;;;;;;28.37;19.80;;;;;;;;;;6278662;22;20413;-74
2020/12/05 05:24:33;;;;;;;33.27;19.57;;;;;;;;;;6277832;22;20408;-74
2020/12/05 05:27:08;;;;;;;32.73;21.30;;;;;;;;;;6278593;22;20850;-74
2020/12/05 05:29:38;;;;;;;30.87;20.23;;;;;;;;;;6278178;22;20412;-74
2020/12/05 05:32:10;;;;;;;31.87;20.93;;;;;;;;;;6278097;22;20431;-74
2020/12/05 05:34:37;;;;;;;33.27;21.77;;;;;;;;;;6277887;22;20770;-74
2020/12/05 05:37:13;;;;;;;37.60;22.43;;;;;;;;;;6279583;22;20459;-75
2020/12/05 05:39:50;;;;;;;35.37;23.20;;;;;;;;;;6277988;22;20499;-74
2020/12/05 05:42:27;;;;;;;33.60;22.00;;;;;;;;;;6277433;22;20416;-75
2020/12/05 05:44:54;;;;;;;33.87;20.90;;;;;;;;;;6277812;22;20782;-74
2020/12/05 05:47:27;;;;;;;36.00;22.47;;;;;;;;;;6277919;22;20413;-75
2020/12/05 05:49:54;;;;;;;37.70;23.50;;;;;;;;;;6277887;22;20412;-74
2020/12/05 05:52:24;;;;;;;31.00;19.30;;;;;;;;;;6277838;22;20442;-74
2020/12/05 05:54:54;;;;;;;32.73;20.83;;;;;;;;;;6278021;22;20420;-74
2020/12/05 05:57:21;;;;;;;33.67;20.20;;;;;;;;;;6279234;22;20415;-74
2020/12/05 05:59:48;;;;;;;32.90;21.07;;;;;;;;;;6277990;22;20378;-75
2020/12/05 06:02:20;;;;;;;32.33;21.83;;;;;;;;;;6278413;22;20855;-75
2020/12/05 06:04:51;;;;;;;31.00;20.97;;;;;;;;;;6277946;22;20416;-76
2020/12/05 06:07:25;;;;;;;35.27;21.00;;;;;;;;;;6277702;22;20420;-74
2020/12/05 06:09:53;;;;;;;37.80;23.50;;;;;;;;;;6278628;22;20411;-75
2020/12/05 06:12:23;;;;;;;34.27;22.30;;;;;;;;;;6278251;22;20754;-74
2020/12/05 06:14:57;;;;;;;33.47;22.53;;;;;;;;;;6277096;22;20413;-74
2020/12/05 06:17:25;;;;;;;30.83;19.90;;;;;;;;;;6276776;22;20470;-74
2020/12/05 06:19:53;;;;;;;33.60;22.07;;;;;;;;;;6278265;22;20416;-74
2020/12/05 06:22:24;;;;;;;28.73;18.80;;;;;;;;;;6277065;22;20485;-74
2020/12/05 06:25:00;;;;;;;34.53;20.30;;;;;;;;;;6277670;22;20405;-74
2020/12/05 06:27:29;;;;;;;35.63;21.80;;;;;;;;;;6278353;22;20416;-74
2020/12/05 06:30:04;;;;;;;29.27;18.90;;;;;;;;;;6277587;22;20400;-75
2020/12/05 06:32:38;;;;;;;36.33;23.70;;;;;;;;;;6278140;22;20417;-74
2020/12/05 06:35:06;;;;;;;32.97;22.23;;;;;;;;;;6277533;22;20662;-74
2020/12/05 06:37:34;;;;;;;33.17;21.00;;;;;;;;;;6276969;22;20462;-74
2020/12/05 06:40:02;;;;;;;32.07;20.20;;;;;;;;;;6277499;22;20413;-74
2020/12/05 06:42:29;;;;;;;34.20;23.40;;;;;;;;;;6277972;22;20801;-75
2020/12/05 06:44:56;;;;;;;37.23;23.50;;;;;;;;;;6276778;22;20432;-74
2020/12/05 06:47:24;;;;;;;31.23;19.77;;;;;;;;;;6277333;22;20850;-74
2020/12/05 06:49:59;;;;;;;34.27;23.10;;;;;;;;;;6276811;22;20404;-74
2020/12/05 06:52:46;;;;;;;37.27;21.93;;;;;;;;;;6277322;22;20416;-74
2020/12/05 06:55:31;;;;;;;31.93;21.80;;;;;;;;;;6277454;22;20670;-74
2020/12/05 06:58:02;;;;;;;35.57;22.47;;;;;;;;;;6279153;22;20421;-74
2020/12/05 07:00:32;;;;;;;38.23;23.43;;;;;;;;;;6277762;22;20404;-74
2020/12/05 07:02:59;;;;;;;34.53;22.70;;;;;;;;;;6254641;22;20515;-75
2020/12/05 07:05:28;;;;;;;38.90;23.97;;;;;;;;;;6278821;22;20416;-74
2020/12/05 07:07:55;;;;;;;38.03;22.43;;;;;;;;;;6278213;22;20452;-74
2020/12/05 07:10:28;;;;;;;32.43;21.03;;;;;;;;;;6278780;22;20830;-74
2020/12/05 07:12:59;;;;;;;34.00;22.00;;;;;;;;;;6272120;22;20420;-75
2020/12/05 07:15:27;;;;;;;41.63;22.33;;;;;;;;;;6278464;22;20516;-74
2020/12/05 07:17:54;;;;;;;33.93;21.57;;;;;;;;;;6278896;22;20413;-75
2020/12/05 07:20:22;;;;;;;35.47;21.03;;;;;;;;;;6279623;22;20668;-74
2020/12/05 07:22:50;;;;;;;38.27;23.50;;;;;;;;;;6279619;22;20409;-74
2020/12/05 07:25:17;;;;;;;35.40;24.87;;;;;;;;;;6278304;22;20488;-74
2020/12/05 07:27:46;;;;;;;34.93;23.40;;;;;;;;;;6278586;22;20449;-74
2020/12/05 07:30:14;;;;;;;39.83;23.17;;;;;;;;;;6278515;22;20409;-74
2020/12/05 07:32:42;;;;;;;34.73;21.47;;;;;;;;;;6278286;22;20420;-74
2020/12/05 07:35:12;;;;;;;34.50;22.37;;;;;;;;;;6278423;22;20539;-75
2020/12/05 07:37:43;;;;;;;38.40;23.80;;;;;;;;;;6278495;22;20416;-74
2020/12/05 07:40:15;;;;;;;34.83;22.10;;;;;;;;;;6278690;22;20412;-75
2020/12/05 07:42:43;;;;;;;35.50;23.30;;;;;;;;;;6278499;22;20432;-75
2020/12/05 07:45:11;;;;;;;40.10;22.23;;;;;;;;;;6278281;22;20413;-76
2020/12/05 07:47:39;;;;;;;35.07;24.63;;;;;;;;;;6279132;22;20441;-75
2020/12/05 07:50:07;;;;;;;36.00;23.07;;;;;;;;;;6278807;22;20397;-74
2020/12/05 07:52:37;;;;;;;41.43;23.60;;;;;;;;;;6278639;22;20710;-74
2020/12/05 07:57:52;;;;;;;35.57;22.00;;;;;;;;;;6265021;22;20421;-75
2020/12/05 08:00:24;;;;;;;35.00;22.37;;;;;;;;;;6277000;22;20417;-75
2020/12/05 08:03:07;;;;;;;39.17;23.17;;;;;;;;;;6278561;22;20427;-74
2020/12/05 08:05:38;;;;;;;35.30;22.57;;;;;;;;;;6278197;22;20416;-75
2020/12/05 08:08:09;;;;;;;36.27;22.70;;;;;;;;;;6278073;22;20802;-75
2020/12/05 08:10:37;;;;;;;39.90;22.77;;;;;;;;;;6277831;22;20424;-74
2020/12/05 08:13:21;;;;;;;34.50;23.27;;;;;;;;;;6278511;22;20417;-75
2020/12/05 08:15:48;;;;;;;36.40;21.23;;;;;;;;;;6278634;22;20562;-74
2020/12/05 08:18:18;;;;;;;35.70;23.53;;;;;;;;;;6278696;22;20421;-74
2020/12/05 08:20:46;;;;;;;32.10;22.70;;;;;;;;;;6278336;22;20417;-75
2020/12/05 08:23:26;;;;;;;33.67;22.07;;;;;;;;;;6278444;22;20408;-74
2020/12/05 08:25:55;;;;;;;38.43;23.80;;;;;;;;;;6278264;22;20420;-75
2020/12/05 08:28:37;;;;;;;34.50;21.87;;;;;;;;;;6278383;22;21029;-75
2020/12/05 08:31:06;;;;;;;38.00;23.30;;;;;;;;;;6278169;22;20405;-75
2020/12/05 08:33:42;;;;;;;34.80;22.30;;;;;;;;;;6278749;22;20408;-76
2020/12/05 08:36:19;;;;;;;35.67;23.13;;;;;;;;;;6278500;22;20412;-76
2020/12/05 08:38:46;;;;;;;34.47;22.57;;;;;;;;;;6277863;22;20424;-74
2020/12/05 08:41:16;;;;;;;35.67;23.83;;;;;;;;;;6277626;22;20827;-75
2020/12/05 08:43:44;;;;;;;34.60;22.33;;;;;;;;;;6278262;22;20697;-74
2020/12/05 08:46:17;;;;;;;31.77;21.00;;;;;;;;;;6278437;22;20470;-75
2020/12/05 08:48:45;;;;;;;33.60;22.20;;;;;;;;;;6253146;22;20441;-75
2020/12/05 08:51:13;;;;;;;38.13;23.07;;;;;;;;;;6277276;22;20417;-75
2020/12/05 08:53:40;;;;;;;41.57;24.63;;;;;;;;;;6278561;22;20411;-75
2020/12/05 08:56:07;;;;;;;41.93;23.20;;;;;;;;;;6277890;22;20412;-75
2020/12/05 08:58:54;;;;;;;34.13;21.60;;;;;;;;;;6278020;22;20405;-75
2020/12/05 09:01:24;;;;;;;35.57;23.43;;;;;;;;;;6278364;22;20426;-74
2020/12/05 09:03:52;;;;;;;37.60;21.93;;;;;;;;;;6276717;22;20423;-75
2020/12/05 09:06:26;;;;;;;40.83;24.60;;;;;;;;;;6277828;22;20444;-74
2020/12/05 09:09:00;;;;;;;39.33;22.37;;;;;;;;;;6277440;22;20473;-75
2020/12/05 09:11:28;;;;;;;35.40;23.00;;;;;;;;;;6277756;22;20412;-75
2020/12/05 09:13:55;;;;;;;34.33;24.47;;;;;;;;;;6277471;22;20452;-75
2020/12/05 09:16:32;;;;;;;40.70;25.17;;;;;;;;;;6276706;22;20441;-75
2020/12/05 09:19:00;;;;;;;36.67;23.23;;;;;;;;;;6277280;22;20427;-74
2020/12/05 09:21:27;;;;;;;33.00;22.33;;;;;;;;;;6276875;22;20510;-74
2020/12/05 09:24:04;;;;;;;37.30;23.07;;;;;;;;;;6278244;22;20405;-74
2020/12/05 09:26:32;;;;;;;38.30;22.57;;;;;;;;;;6277794;22;20524;-75
2020/12/05 09:29:02;;;;;;;38.07;22.67;;;;;;;;;;6275295;22;20440;-74
2020/12/05 09:31:31;;;;;;;38.40;24.70;;;;;;;;;;6276970;22;20417;-74
2020/12/05 09:34:04;;;;;;;38.70;23.87;;;;;;;;;;6276588;22;20416;-74
2020/12/05 09:36:45;;;;;;;35.50;22.30;;;;;;;;;;6276372;22;20428;-75
2020/12/05 09:39:14;;;;;;;33.27;22.70;;;;;;;;;;6277740;22;20694;-74
2020/12/05 09:41:49;;;;;;;35.27;22.80;;;;;;;;;;6276785;22;20426;-74
2020/12/05 09:44:20;;;;;;;35.47;22.80;;;;;;;;;;6277213;22;20507;-74
2020/12/05 09:46:51;;;;;;;34.10;20.73;;;;;;;;;;6277950;22;20453;-74
2020/12/05 09:49:19;;;;;;;43.30;24.30;;;;;;;;;;6276150;22;20444;-75
2020/12/05 09:51:46;;;;;;;32.27;21.07;;;;;;;;;;6251783;22;20401;-74
2020/12/05 09:54:13;;;;;;;32.50;20.90;;;;;;;;;;6276205;22;20408;-74
2020/12/05 09:56:40;;;;;;;34.40;21.37;;;;;;;;;;6277028;22;20466;-73
2020/12/05 09:59:07;;;;;;;33.17;23.43;;;;;;;;;;6277510;22;20421;-74
2020/12/05 10:01:34;;;;;;;33.23;21.37;;;;;;;;;;6275529;22;20459;-74
2020/12/05 10:04:01;;;;;;;33.30;21.70;;;;;;;;;;6276172;22;20420;-73
2020/12/05 10:06:37;;;;;;;30.83;21.80;;;;;;;;;;6277255;22;20411;-74
2020/12/05 10:09:04;;;;;;;42.40;27.17;;;;;;;;;;6276855;22;20439;-74
2020/12/05 10:11:31;;;;;;;34.13;22.40;;;;;;;;;;6276211;22;20721;-74
2020/12/05 10:13:58;;;;;;;37.77;24.70;;;;;;;;;;6276587;22;20482;-74
2020/12/05 10:16:25;;;;;;;39.30;24.43;;;;;;;;;;6277140;22;20396;-74
2020/12/05 10:18:53;;;;;;;42.63;25.23;;;;;;;;;;6275681;22;20486;-75
2020/12/05 10:21:20;;;;;;;45.20;29.57;;;;;;;;;;6276449;22;20401;-75
2020/12/05 10:23:48;;;;;;;34.40;20.30;;;;;;;;;;6275839;22;20421;-74
2020/12/05 10:26:33;;;;;;;36.90;23.10;;;;;;;;;;6276394;22;20470;-75
2020/12/05 10:29:08;;;;;;;46.23;29.27;;;;;;;;;;6269220;22;20976;-74
2020/12/05 10:32:02;;;;;;;48.60;27.63;;;;;;;;;;6280552;22;20788;-76
2020/12/05 10:37:56;;;;;;;39.50;21.23;;;;;;;;;;6160851;22;20416;-73
2020/12/05 10:40:33;;;;;;;32.43;19.80;;;;;;;;;;6280566;22;20411;-75
2020/12/05 10:43:24;;;;;;;40.83;25.40;;;;;;;;;;6279666;22;20412;-73
2020/12/05 10:45:56;;;;;;;36.67;25.73;;;;;;;;;;6279625;22;20450;-73
2020/12/05 10:48:35;;;;;;;28.10;19.00;;;;;;;;;;6278510;22;20455;-73
2020/12/05 10:51:08;;;;;;;31.90;19.27;;;;;;;;;;6278477;22;20416;-73
2020/12/05 10:53:43;;;;;;;28.53;19.17;;;;;;;;;;6278619;22;20519;-75
2020/12/05 10:56:31;;;;;;;28.90;18.13;;;;;;;;;;6276948;22;20465;-74
2020/12/05 10:58:59;;;;;;;29.57;19.43;;;;;;;;;;6279623;22;20428;-74
2020/12/05 11:01:26;;;;;;;31.07;20.83;;;;;;;;;;6278690;22;20801;-74
2020/12/05 11:03:53;;;;;;;30.03;19.80;;;;;;;;;;6276763;22;20420;-74
2020/12/05 11:06:30;;;;;;;29.97;18.23;;;;;;;;;;6275886;22;20405;-75
2020/12/05 11:09:10;;;;;;;26.47;17.53;;;;;;;;;;6278689;22;20452;-75
2020/12/05 11:14:39;;;;;;;25.47;17.13;;;;;;;;;;6274534;22;20425;-75
2020/12/05 11:17:24;;;;;;;25.83;17.43;;;;;;;;;;6279246;22;20399;-75
2020/12/05 11:19:52;;;;;;;28.97;19.00;;;;;;;;;;6279470;22;20527;-75
2020/12/05 11:22:26;;;;;;;28.67;18.03;;;;;;;;;;6278069;22;20404;-74
2020/12/05 11:25:03;;;;;;;27.27;18.43;;;;;;;;;;6277098;22;20458;-74
2020/12/05 11:27:57;;;;;;;32.40;21.00;;;;;;;;;;6277987;22;20444;-74
2020/12/05 11:30:24;;;;;;;25.70;17.17;;;;;;;;;;6274859;22;20482;-73
2020/12/05 11:32:57;;;;;;;24.73;16.50;;;;;;;;;;6275414;22;20462;-74
2020/12/05 11:35:24;;;;;;;27.00;17.80;;;;;;;;;;6276284;22;20738;-74
2020/12/05 11:37:54;;;;;;;20.30;14.60;;;;;;;;;;6276257;22;20952;-74
2020/12/05 11:40:40;;;;;;;25.50;17.53;;;;;;;;;;6274834;22;20432;-74
2020/12/05 11:43:19;;;;;;;24.97;16.90;;;;;;;;;;6276790;22;20413;-75
2020/12/05 11:45:57;;;;;;;21.77;14.73;;;;;;;;;;6277536;22;21068;-75
2020/12/05 11:48:27;;;;;;;34.80;24.50;;;;;;;;;;6279707;22;20448;-76
2020/12/05 11:51:13;;;;;;;29.33;19.20;;;;;;;;;;6278478;22;20408;-74
2020/12/05 11:54:03;;;;;;;27.30;18.33;;;;;;;;;;6278974;22;20718;-75
2020/12/05 11:56:45;;;;;;;21.37;14.40;;;;;;;;;;6277603;22;20406;-75
2020/12/05 11:59:24;;;;;;;22.90;15.90;;;;;;;;;;6275609;22;20421;-75
2020/12/05 12:01:52;;;;;;;26.40;17.93;;;;;;;;;;6276311;22;20409;-74
2020/12/05 12:04:19;;;;;;;30.00;19.20;;;;;;;;;;6276828;22;20470;-74
2020/12/05 12:06:49;;;;;;;22.20;16.07;;;;;;;;;;6276490;22;20412;-74
2020/12/05 12:09:19;;;;;;;26.20;16.60;;;;;;;;;;6275580;22;20452;-74
2020/12/05 12:11:48;;;;;;;22.40;14.93;;;;;;;;;;6276445;22;20405;-74
2020/12/05 12:14:15;;;;;;;19.70;14.80;;;;;;;;;;6275096;22;20416;-74
2020/12/05 12:16:43;;;;;;;21.07;15.57;;;;;;;;;;6275797;22;20405;-74
2020/12/05 12:19:24;;;;;;;27.07;15.80;;;;;;;;;;6277490;22;20473;-74
2020/12/05 12:21:53;;;;;;;20.97;14.90;;;;;;;;;;6275168;22;20417;-75
2020/12/05 12:24:20;;;;;;;20.70;14.10;;;;;;;;;;6277503;22;20409;-74
2020/12/05 12:26:49;;;;;;;19.30;13.67;;;;;;;;;;6279724;22;20401;-75
2020/12/05 12:29:25;;;;;;;21.37;14.63;;;;;;;;;;6276993;22;20463;-75
2020/12/05 12:31:56;;;;;;;22.67;14.77;;;;;;;;;;6278290;22;20461;-74
2020/12/05 12:34:40;;;;;;;23.60;15.67;;;;;;;;;;6277517;22;20409;-74
2020/12/05 12:40:09;;;;;;;23.90;15.70;;;;;;;;;;6277059;22;20451;-74
2020/12/05 12:42:36;;;;;;;22.03;15.37;;;;;;;;;;6277273;22;20461;-75
2020/12/05 12:45:10;;;;;;;22.17;14.57;;;;;;;;;;6252377;22;20934;-75
2020/12/05 12:47:59;;;;;;;23.63;14.90;;;;;;;;;;6278852;22;20413;-75
2020/12/05 12:50:37;;;;;;;22.53;15.37;;;;;;;;;;6278593;22;20416;-74
2020/12/05 12:53:06;;;;;;;20.10;14.03;;;;;;;;;;6274875;22;20462;-74
2020/12/05 12:55:35;;;;;;;22.53;13.23;;;;;;;;;;6278042;22;20901;-74
2020/12/05 12:58:13;;;;;;;19.60;13.53;;;;;;;;;;6278312;22;20412;-75
2020/12/05 13:00:42;;;;;;;25.03;14.80;;;;;;;;;;6276013;22;20719;-74
2020/12/05 13:03:12;;;;;;;20.20;13.93;;;;;;;;;;6276547;22;20420;-74
2020/12/05 13:05:43;;;;;;;20.43;14.17;;;;;;;;;;6275974;22;20409;-75
2020/12/05 13:08:15;;;;;;;20.40;13.80;;;;;;;;;;6275252;22;20444;-76
2020/12/05 13:10:43;;;;;;;21.47;14.93;;;;;;;;;;6275830;22;20428;-74
2020/12/05 13:13:13;;;;;;;24.27;13.90;;;;;;;;;;6274050;22;20436;-75
2020/12/05 13:15:51;;;;;;;20.70;14.00;;;;;;;;;;6276826;22;20405;-74
2020/12/05 13:18:20;;;;;;;24.70;14.97;;;;;;;;;;6275893;22;20420;-73
2020/12/05 13:20:47;;;;;;;23.50;14.97;;;;;;;;;;6277790;22;20417;-74
2020/12/05 13:23:14;;;;;;;22.47;15.00;;;;;;;;;;6277153;22;20461;-75
2020/12/05 13:25:41;;;;;;;18.50;13.60;;;;;;;;;;6276731;22;20409;-74
2020/12/05 13:28:11;;;;;;;23.60;14.60;;;;;;;;;;6276290;22;20455;-76
2020/12/05 13:30:38;;;;;;;21.87;14.80;;;;;;;;;;6276457;22;20405;-74
2020/12/05 13:33:05;;;;;;;20.63;13.87;;;;;;;;;;6274193;22;20420;-76
2020/12/05 13:35:33;;;;;;;23.17;14.40;;;;;;;;;;6276979;22;20405;-74
2020/12/05 13:38:03;;;;;;;21.93;13.60;;;;;;;;;;6276987;22;20422;-75
2020/12/05 13:40:31;;;;;;;17.20;12.43;;;;;;;;;;6277096;22;20417;-74
2020/12/05 13:43:01;;;;;;;24.27;16.70;;;;;;;;;;6278137;22;20437;-74
2020/12/05 13:45:43;;;;;;;20.23;13.97;;;;;;;;;;6276999;22;20459;-76
2020/12/05 13:48:25;;;;;;;22.67;14.70;;;;;;;;;;6252845;22;20436;-75
2020/12/05 13:50:53;;;;;;;17.60;12.47;;;;;;;;;;6278537;22;20416;-75
2020/12/05 13:53:24;;;;;;;18.13;13.40;;;;;;;;;;6277163;22;20526;-75
2020/12/05 13:55:54;;;;;;;21.63;15.03;;;;;;;;;;6278981;22;20468;-75
2020/12/05 13:58:23;;;;;;;15.03;11.90;;;;;;;;;;6277243;22;20413;-75
2020/12/05 14:00:50;;;;;;;20.17;14.50;;;;;;;;;;6276084;22;20835;-75
2020/12/05 14:03:18;;;;;;;24.77;13.87;;;;;;;;;;6278009;22;20689;-74
2020/12/05 14:05:45;;;;;;;20.43;13.53;;;;;;;;;;6277023;22;20404;-74
2020/12/05 14:08:15;;;;;;;19.87;11.93;;;;;;;;;;6275928;22;20448;-74
2020/12/05 14:10:43;;;;;;;19.30;13.07;;;;;;;;;;6276968;22;20416;-74
2020/12/05 14:13:36;;;;;;;;;;;;;;;;;;;;;
2020/12/05 14:16:14;;;;;;;16.70;11.63;;;;;;;;;;6272409;22;20583;-74
2020/12/05 14:18:43;;;;;;;19.93;12.70;;;;;;;;;;6274464;22;20405;-74
2020/12/05 14:21:10;;;;;;;19.60;12.90;;;;;;;;;;6276230;22;20500;-74
2020/12/05 14:23:38;;;;;;;18.83;14.67;;;;;;;;;;6276488;22;20899;-74
2020/12/05 14:26:06;;;;;;;16.50;12.10;;;;;;;;;;6275242;22;20826;-75
2020/12/05 14:28:36;;;;;;;21.47;14.63;;;;;;;;;;6275995;22;20460;-74
2020/12/05 14:31:08;;;;;;;17.40;12.50;;;;;;;;;;6276893;22;20413;-74
2020/12/05 14:33:35;;;;;;;22.20;13.43;;;;;;;;;;6276643;22;20446;-74
2020/12/05 14:36:02;;;;;;;19.20;13.00;;;;;;;;;;6276401;22;20838;-74
2020/12/05 14:38:30;;;;;;;19.77;14.03;;;;;;;;;;6275963;22;20427;-74
2020/12/05 14:41:01;;;;;;;20.23;13.90;;;;;;;;;;6276858;22;20842;-76
2020/12/05 14:43:28;;;;;;;20.10;12.80;;;;;;;;;;6275492;22;20417;-74
2020/12/05 14:45:55;;;;;;;19.30;12.47;;;;;;;;;;6277228;22;20416;-74
2020/12/05 14:48:22;;;;;;;17.70;12.13;;;;;;;;;;6276782;22;20520;-74